Time;durP1;ratioP1;P1;durP2;ratioP2;P2;SDS_P1;SDS_P2;PMS_P1;PMS_P2;Temp;Humidity;BMP_temperature;BMP_pressure;BME280_temperature;BME280_humidity;BME280_pressure;Samples;Min_cycle;Max_cycle;Signal;HPM_P1;HPM_P2
2022/11/29 00:01:30;;;;;;;34.97;19.20;;;10.80;62.70;;;;;;5045592;28;20473;-85
2022/11/29 00:03:57;;;;;;;34.93;19.40;;;10.80;62.90;;;;;;5044755;28;20580;-85
2022/11/29 00:06:26;;;;;;;39.30;19.97;;;10.90;62.50;;;;;;5027439;28;20441;-87
2022/11/29 00:08:55;;;;;;;41.53;21.43;;;11.00;62.40;;;;;;5044811;28;20460;-85
2022/11/29 00:14:12;;;;;;;35.30;19.30;;;11.20;61.90;;;;;;5044785;28;20505;-84
2022/11/29 00:16:39;;;;;;;35.60;19.67;;;11.10;62.40;;;;;;5044275;28;20540;-87
2022/11/29 00:19:06;;;;;;;39.10;20.67;;;11.10;62.40;;;;;;5045131;28;20830;-85
2022/11/29 00:21:33;;;;;;;33.03;18.90;;;11.10;62.10;;;;;;5030154;28;20913;-87
2022/11/29 00:24:00;;;;;;;32.27;17.50;;;11.10;62.30;;;;;;5044196;28;20457;-85
2022/11/29 00:26:27;;;;;;;29.80;17.97;;;11.00;62.40;;;;;;5044658;28;21236;-86
2022/11/29 00:28:55;;;;;;;28.50;17.10;;;11.10;62.60;;;;;;5038605;28;20461;-84
2022/11/29 00:31:26;;;;;;;35.97;18.33;;;11.20;62.00;;;;;;5021531;28;20820;-85
2022/11/29 00:33:53;;;;;;;34.33;19.93;;;11.30;61.70;;;;;;5044507;28;20454;-85
2022/11/29 00:36:20;;;;;;;43.23;21.00;;;11.30;61.40;;;;;;5027527;28;20580;-86
2022/11/29 00:38:47;;;;;;;42.73;23.00;;;11.30;61.30;;;;;;5027723;28;20576;-85
2022/11/29 00:41:15;;;;;;;38.80;20.80;;;11.40;61.20;;;;;;5044221;28;20497;-86
2022/11/29 00:43:42;;;;;;;37.70;18.73;;;11.40;61.10;;;;;;5018881;28;20453;-85
2022/11/29 00:46:09;;;;;;;37.63;19.03;;;11.40;61.10;;;;;;5043976;28;20481;-86
2022/11/29 00:48:38;;;;;;;31.30;17.80;;;11.40;61.20;;;;;;5044585;28;21017;-88
2022/11/29 00:51:06;;;;;;;31.87;18.70;;;11.40;61.20;;;;;;5037747;28;20572;-85
2022/11/29 00:53:34;;;;;;;38.57;19.87;;;11.40;61.00;;;;;;5016308;28;20446;-86
2022/11/29 00:56:02;;;;;;;35.57;20.73;;;11.50;61.20;;;;;;5010367;28;20457;-87
2022/11/29 00:58:29;;;;;;;39.97;19.47;;;11.40;60.90;;;;;;5044939;28;20996;-85
2022/11/29 01:00:56;;;;;;;33.90;18.50;;;11.50;60.90;;;;;;5045164;28;20568;-85
2022/11/29 01:03:23;;;;;;;36.60;19.27;;;11.50;61.00;;;;;;5027084;28;20454;-87
2022/11/29 01:05:52;;;;;;;32.53;17.40;;;11.30;61.40;;;;;;5026925;28;20457;-85
2022/11/29 01:08:19;;;;;;;29.60;17.60;;;11.20;62.10;;;;;;5010992;28;20469;-84
2022/11/29 01:10:46;;;;;;;29.33;17.03;;;11.00;62.80;;;;;;5044689;28;20549;-84
2022/11/29 01:13:13;;;;;;;33.63;18.10;;;11.10;62.40;;;;;;5027939;28;20915;-86
2022/11/29 01:15:41;;;;;;;30.73;15.47;;;11.10;62.30;;;;;;5043827;28;20997;-85
2022/11/29 01:18:08;;;;;;;30.60;15.90;;;11.10;62.80;;;;;;5027486;28;20474;-86
2022/11/29 01:20:35;;;;;;;30.17;19.20;;;11.10;62.60;;;;;;5044076;28;20466;-84
2022/11/29 01:23:03;;;;;;;32.40;16.93;;;11.10;62.90;;;;;;5044170;28;21043;-87
2022/11/29 01:25:31;;;;;;;32.70;15.83;;;11.00;63.10;;;;;;5043588;28;20808;-85
2022/11/29 01:27:58;;;;;;;33.10;17.43;;;11.00;62.80;;;;;;5026382;28;20457;-85
2022/11/29 01:30:25;;;;;;;28.10;18.10;;;11.00;63.00;;;;;;5043927;28;20491;-85
2022/11/29 01:32:52;;;;;;;31.70;18.07;;;11.00;63.40;;;;;;5044102;28;20450;-87
2022/11/29 01:35:19;;;;;;;33.23;15.57;;;11.00;63.30;;;;;;5026118;28;20460;-87
2022/11/29 01:37:46;;;;;;;28.77;16.33;;;11.20;62.80;;;;;;5044652;28;20465;-85
2022/11/29 01:40:15;;;;;;;30.33;18.13;;;11.20;62.70;;;;;;5045413;28;20543;-84
2022/11/29 01:42:42;;;;;;;28.10;16.40;;;11.20;62.10;;;;;;5009820;28;20453;-85
2022/11/29 01:45:21;;;;;;;29.47;16.00;;;11.30;62.30;;;;;;5020724;28;20835;-86
2022/11/29 01:47:50;;;;;;;33.90;18.30;;;11.10;62.60;;;;;;5044230;28;20453;-86
2022/11/29 01:50:18;;;;;;;27.90;16.77;;;11.10;62.90;;;;;;5025198;28;20469;-85
2022/11/29 01:52:46;;;;;;;26.13;14.77;;;11.00;63.20;;;;;;5043478;28;20504;-85
2022/11/29 01:55:15;;;;;;;25.03;14.83;;;10.90;63.40;;;;;;5043702;28;20445;-85
2022/11/29 01:57:43;;;;;;;31.73;15.73;;;11.00;63.50;;;;;;5042625;28;20471;-86
2022/11/29 02:00:13;;;;;;;25.30;14.00;;;11.10;63.00;;;;;;5024113;28;20573;-86
2022/11/29 02:02:44;;;;;;;27.57;15.60;;;11.20;62.80;;;;;;5042587;28;20469;-86
2022/11/29 02:05:13;;;;;;;31.00;16.67;;;11.10;63.10;;;;;;5029734;28;20461;-84
2022/11/29 02:07:43;;;;;;;24.77;15.43;;;11.20;62.90;;;;;;5042216;28;20478;-85
2022/11/29 02:10:10;;;;;;;29.83;15.90;;;11.20;62.60;;;;;;5008977;28;20461;-87
2022/11/29 02:12:54;;;;;;;27.80;15.63;;;11.30;62.20;;;;;;5024767;28;20453;-84
2022/11/29 02:15:41;;;;;;;27.87;15.20;;;11.40;62.10;;;;;;5024770;28;20449;-86
2022/11/29 02:18:11;;;;;;;25.27;14.60;;;11.40;61.90;;;;;;5012693;28;20460;-84
2022/11/29 02:21:30;;;;;;;29.50;15.17;;;11.40;62.30;;;;;;5041758;28;20568;-85
2022/11/29 02:24:14;;;;;;;26.77;13.67;;;11.30;62.10;;;;;;5036032;28;20968;-85
2022/11/29 02:27:14;;;;;;;24.07;15.40;;;11.20;63.80;;;;;;5042381;28;20464;-85
2022/11/29 02:30:03;;;;;;;27.83;15.10;;;11.20;62.90;;;;;;4975525;28;20579;-85
2022/11/29 02:33:07;;;;;;;26.20;15.07;;;11.40;62.50;;;;;;5043328;28;21031;-87
2022/11/29 02:36:10;;;;;;;23.03;13.70;;;11.40;62.10;;;;;;4986084;28;20457;-86
2022/11/29 02:39:00;;;;;;;30.03;16.30;;;11.40;62.30;;;;;;5041314;28;20567;-85
2022/11/29 02:41:45;;;;;;;31.40;15.37;;;11.40;62.50;;;;;;5042361;28;20469;-84
2022/11/29 02:44:48;;;;;;;32.23;15.97;;;11.40;63.00;;;;;;5042203;28;20450;-85
2022/11/29 02:47:25;;;;;;;30.40;14.40;;;11.50;62.20;;;;;;5042192;28;20493;-84
2022/11/29 02:50:34;;;;;;;27.00;13.97;;;11.50;62.00;;;;;;5024938;28;20485;-86
2022/11/29 02:53:09;;;;;;;25.57;14.67;;;11.40;62.50;;;;;;4964491;28;20905;-86
2022/11/29 02:55:41;;;;;;;26.13;14.73;;;11.30;62.70;;;;;;5021392;28;20487;-85
2022/11/29 02:58:17;;;;;;;29.37;17.17;;;11.40;62.60;;;;;;5043696;28;20548;-85
2022/11/29 03:00:53;;;;;;;25.53;15.00;;;11.30;62.70;;;;;;5019980;28;20483;-86
2022/11/29 03:03:26;;;;;;;27.00;15.20;;;11.30;63.00;;;;;;5041149;28;20457;-87
2022/11/29 03:06:04;;;;;;;24.97;14.07;;;11.30;62.80;;;;;;5021511;28;20532;-85
2022/11/29 03:08:38;;;;;;;31.13;18.17;;;11.30;63.10;;;;;;5022459;28;20547;-87
2022/11/29 03:11:17;;;;;;;30.27;16.30;;;11.40;62.60;;;;;;5021147;28;20548;-87
2022/11/29 03:13:52;;;;;;;24.63;15.93;;;11.50;62.30;;;;;;5028112;28;20457;-85
2022/11/29 03:16:29;;;;;;;26.20;15.27;;;11.50;62.00;;;;;;5046908;28;20440;-82
2022/11/29 03:19:05;;;;;;;25.30;14.37;;;11.60;62.10;;;;;;5046739;28;20765;-88
2022/11/29 03:21:41;;;;;;;24.40;12.93;;;11.60;62.10;;;;;;5009936;28;20500;-89
2022/11/29 03:24:15;;;;;;;24.80;13.40;;;11.60;61.90;;;;;;5046344;28;20456;-86
2022/11/29 03:26:47;;;;;;;29.80;15.83;;;11.60;61.60;;;;;;5046367;28;20449;-86
2022/11/29 03:29:24;;;;;;;29.83;17.10;;;11.60;61.50;;;;;;5047524;28;20447;-90
2022/11/29 03:31:57;;;;;;;32.77;17.70;;;11.60;61.20;;;;;;5046864;28;20447;-84
2022/11/29 03:34:32;;;;;;;31.07;16.70;;;11.70;61.20;;;;;;5044928;28;20453;-85
2022/11/29 03:37:06;;;;;;;28.60;15.50;;;11.60;62.00;;;;;;5046247;28;20449;-86
2022/11/29 03:39:43;;;;;;;22.07;14.40;;;11.60;61.90;;;;;;5046377;28;20472;-88
2022/11/29 03:42:16;;;;;;;25.40;14.87;;;11.60;61.70;;;;;;5028420;28;20472;-85
2022/11/29 03:44:50;;;;;;;24.30;14.10;;;11.60;61.50;;;;;;5025891;28;20488;-85
2022/11/29 03:47:24;;;;;;;25.43;14.10;;;11.70;61.50;;;;;;5046139;28;20504;-87
2022/11/29 03:49:54;;;;;;;23.57;14.10;;;11.60;61.40;;;;;;5011766;28;20576;-85
2022/11/29 03:52:29;;;;;;;21.90;13.20;;;11.70;61.60;;;;;;5047659;28;20690;-85
2022/11/29 03:55:11;;;;;;;22.37;14.27;;;11.70;61.60;;;;;;5046388;28;20535;-85
2022/11/29 03:57:58;;;;;;;23.97;14.03;;;11.60;61.50;;;;;;5027055;28;20683;-86
2022/11/29 04:00:28;;;;;;;24.67;13.90;;;11.70;61.50;;;;;;5044132;28;20471;-85
2022/11/29 04:03:22;;;;;;;30.73;15.50;;;11.70;61.80;;;;;;5044605;28;20472;-85
2022/11/29 04:06:15;;;;;;;30.33;15.47;;;11.60;62.00;;;;;;5026788;28;20445;-85
2022/11/29 04:09:13;;;;;;;25.40;15.07;;;11.70;61.90;;;;;;5026296;28;20449;-85
2022/11/29 04:12:17;;;;;;;27.00;14.63;;;11.70;61.70;;;;;;5024679;28;20822;-85
2022/11/29 04:15:20;;;;;;;26.63;14.77;;;11.70;61.60;;;;;;5042807;28;20453;-86
2022/11/29 04:18:21;;;;;;;25.90;14.27;;;11.70;61.50;;;;;;5043952;28;20449;-85
2022/11/29 04:21:27;;;;;;;27.10;15.03;;;11.60;61.50;;;;;;5009689;28;20568;-87
2022/11/29 04:24:38;;;;;;;26.87;14.90;;;11.60;61.90;;;;;;5026468;28;20488;-85
2022/11/29 04:27:23;;;;;;;28.90;14.93;;;11.50;62.10;;;;;;5037453;28;20548;-86
2022/11/29 04:30:06;;;;;;;26.87;14.60;;;11.50;62.30;;;;;;5025517;28;20576;-85
2022/11/29 04:33:09;;;;;;;25.70;13.80;;;11.60;62.10;;;;;;5042919;28;20452;-85
2022/11/29 04:35:48;;;;;;;22.03;13.63;;;11.60;62.10;;;;;;5040510;28;20453;-86
2022/11/29 04:38:57;;;;;;;25.90;13.97;;;11.70;62.10;;;;;;5042529;28;20450;-85
2022/11/29 04:42:01;;;;;;;24.27;14.07;;;11.70;62.00;;;;;;5036315;28;20469;-86
2022/11/29 04:44:44;;;;;;;26.10;14.70;;;11.70;61.90;;;;;;5022562;28;20449;-85
2022/11/29 04:47:48;;;;;;;27.27;15.30;;;11.70;61.70;;;;;;5042350;28;20461;-87
2022/11/29 04:50:27;;;;;;;23.37;13.43;;;11.70;61.60;;;;;;5024626;28;20544;-85
2022/11/29 04:53:32;;;;;;;30.33;14.67;;;11.70;61.60;;;;;;5042589;28;20448;-85
2022/11/29 04:56:10;;;;;;;23.20;13.07;;;11.70;61.60;;;;;;5026299;28;20449;-85
2022/11/29 04:58:46;;;;;;;26.87;15.30;;;11.70;61.60;;;;;;5041921;28;20532;-89
2022/11/29 05:04:04;;;;;;;26.30;14.37;;;11.70;61.60;;;;;;5108653;27;20592;-88
2022/11/29 05:06:40;;;;;;;27.20;14.93;;;11.80;61.60;;;;;;5104375;28;20500;-85
2022/11/29 05:09:18;;;;;;;23.73;14.40;;;11.80;61.60;;;;;;5056888;28;20446;-85
2022/11/29 05:11:59;;;;;;;24.43;15.50;;;11.80;61.40;;;;;;5050384;28;20869;-87
2022/11/29 05:14:35;;;;;;;29.10;15.40;;;11.80;61.40;;;;;;5069985;28;20529;-86
2022/11/29 05:17:21;;;;;;;24.47;14.60;;;11.80;61.50;;;;;;5070756;28;20479;-85
2022/11/29 05:20:03;;;;;;;23.17;14.33;;;11.80;61.40;;;;;;5051663;28;20997;-86
2022/11/29 05:22:35;;;;;;;26.93;15.10;;;11.80;61.50;;;;;;5055518;28;21144;-87
2022/11/29 05:25:21;;;;;;;31.20;15.83;;;11.80;61.50;;;;;;5069768;28;20945;-87
2022/11/29 05:27:52;;;;;;;26.00;14.53;;;11.80;61.50;;;;;;5070754;28;20446;-85
2022/11/29 05:30:21;;;;;;;30.83;15.50;;;11.70;61.70;;;;;;5066688;28;20551;-86
2022/11/29 05:32:57;;;;;;;31.83;15.83;;;11.70;61.70;;;;;;5020201;28;20694;-86
2022/11/29 05:35:50;;;;;;;29.00;16.50;;;11.80;61.70;;;;;;5051957;28;20443;-85
2022/11/29 05:38:43;;;;;;;32.90;16.97;;;11.80;61.80;;;;;;5088169;28;20448;-85
2022/11/29 05:41:28;;;;;;;33.43;17.43;;;11.80;61.60;;;;;;5042053;28;20560;-84
2022/11/29 05:44:04;;;;;;;26.23;14.93;;;11.80;61.50;;;;;;5060568;28;20476;-84
2022/11/29 05:46:37;;;;;;;31.10;16.70;;;11.80;61.60;;;;;;5069284;28;20975;-86
2022/11/29 05:49:17;;;;;;;26.60;14.57;;;11.80;61.50;;;;;;5055067;28;20452;-87
2022/11/29 05:51:55;;;;;;;30.20;14.97;;;11.80;61.40;;;;;;5085086;28;20507;-85
2022/11/29 05:54:28;;;;;;;32.93;16.90;;;11.80;61.30;;;;;;5059718;28;20490;-85
2022/11/29 05:57:06;;;;;;;30.67;15.17;;;11.80;61.30;;;;;;5042450;28;20462;-87
2022/11/29 05:59:36;;;;;;;28.33;15.27;;;11.80;62.00;;;;;;5042016;28;20451;-86
2022/11/29 06:02:12;;;;;;;25.67;14.83;;;11.80;61.30;;;;;;5059272;28;20571;-88
2022/11/29 06:05:02;;;;;;;32.60;16.10;;;11.80;61.10;;;;;;5042462;28;20515;-85
2022/11/29 06:07:38;;;;;;;37.60;14.90;;;11.80;61.20;;;;;;5065507;28;20529;-85
2022/11/29 06:10:11;;;;;;;29.53;15.13;;;11.80;61.10;;;;;;5073092;28;20521;-85
2022/11/29 06:12:39;;;;;;;30.67;16.10;;;11.80;61.00;;;;;;5067458;28;20458;-86
2022/11/29 06:15:41;;;;;;;29.67;15.83;;;11.80;61.00;;;;;;5040685;28;20448;-85
2022/11/29 06:18:29;;;;;;;28.73;17.03;;;11.80;61.00;;;;;;5030161;28;20461;-88
2022/11/29 06:21:09;;;;;;;33.90;16.10;;;11.80;60.90;;;;;;5073027;28;20561;-87
2022/11/29 06:24:03;;;;;;;31.67;17.03;;;11.70;60.90;;;;;;5072222;28;20457;-85
2022/11/29 06:26:54;;;;;;;35.53;20.03;;;11.70;61.10;;;;;;5054294;28;20464;-87
2022/11/29 06:29:29;;;;;;;34.97;17.80;;;11.60;61.10;;;;;;5054221;28;20518;-87
2022/11/29 06:32:02;;;;;;;35.63;17.80;;;11.60;61.30;;;;;;5021800;28;20432;-85
2022/11/29 06:34:39;;;;;;;37.40;20.30;;;11.50;61.60;;;;;;5054898;28;20541;-86
2022/11/29 06:37:17;;;;;;;37.13;18.33;;;11.50;62.00;;;;;;5072748;28;20436;-88
2022/11/29 06:39:46;;;;;;;34.93;19.10;;;11.50;62.00;;;;;;5053619;28;20481;-86
2022/11/29 06:42:13;;;;;;;38.47;20.83;;;11.60;61.90;;;;;;5036253;28;20540;-86
2022/11/29 06:44:41;;;;;;;34.20;20.33;;;11.60;61.60;;;;;;5036248;28;20825;-87
2022/11/29 06:47:14;;;;;;;34.23;19.87;;;11.60;61.50;;;;;;5052227;28;20473;-87
2022/11/29 06:49:46;;;;;;;35.17;19.83;;;11.60;61.80;;;;;;5037034;28;20500;-86
2022/11/29 06:52:24;;;;;;;34.43;20.37;;;11.60;62.10;;;;;;5050152;28;20441;-85
2022/11/29 06:55:03;;;;;;;32.67;19.53;;;11.60;61.90;;;;;;5020360;28;20453;-86
2022/11/29 06:57:43;;;;;;;33.67;19.40;;;11.70;61.80;;;;;;5032140;28;20444;-86
2022/11/29 07:00:16;;;;;;;31.80;19.30;;;11.70;61.50;;;;;;5032951;28;20552;-86
2022/11/29 07:03:23;;;;;;;36.00;17.50;;;11.70;61.40;;;;;;5033185;28;21107;-86
2022/11/29 07:05:51;;;;;;;33.17;18.30;;;11.70;61.40;;;;;;5045833;28;20460;-88
2022/11/29 07:08:21;;;;;;;32.60;18.10;;;11.70;61.40;;;;;;5024705;28;20463;-87
2022/11/29 07:10:53;;;;;;;32.00;17.83;;;11.70;61.50;;;;;;5017645;28;20480;-87
2022/11/29 07:13:21;;;;;;;36.50;18.63;;;11.60;62.10;;;;;;5054563;28;20479;-86
2022/11/29 07:15:58;;;;;;;29.60;17.90;;;11.70;62.10;;;;;;5033383;28;20465;-87
2022/11/29 07:18:32;;;;;;;31.83;15.73;;;11.70;61.70;;;;;;5027119;28;20461;-86
2022/11/29 07:21:10;;;;;;;32.40;17.67;;;11.80;61.60;;;;;;5038202;28;20453;-86
2022/11/29 07:23:44;;;;;;;30.80;18.70;;;11.70;61.70;;;;;;5040889;28;21016;-87
2022/11/29 07:26:21;;;;;;;31.77;18.43;;;11.70;61.50;;;;;;5025705;28;20543;-86
2022/11/29 07:29:02;;;;;;;33.40;18.73;;;11.70;61.30;;;;;;5055669;28;20995;-86
2022/11/29 07:31:41;;;;;;;33.37;19.93;;;11.70;61.20;;;;;;5022221;28;20534;-86
2022/11/29 07:34:15;;;;;;;40.07;21.07;;;11.70;61.20;;;;;;5038183;28;20452;-86
2022/11/29 07:36:55;;;;;;;43.53;22.13;;;11.70;61.30;;;;;;5055122;28;20445;-86
2022/11/29 07:39:38;;;;;;;45.40;24.10;;;11.80;61.30;;;;;;5043919;28;20443;-89
2022/11/29 07:42:15;;;;;;;38.23;20.77;;;11.80;61.20;;;;;;5040517;28;20457;-85
2022/11/29 07:44:48;;;;;;;39.67;22.03;;;11.80;61.30;;;;;;5067840;28;20477;-86
2022/11/29 07:47:15;;;;;;;43.80;23.90;;;11.80;61.40;;;;;;5071011;28;20527;-89
2022/11/29 07:49:42;;;;;;;39.57;23.50;;;11.80;61.90;;;;;;5020538;28;20473;-86
2022/11/29 07:52:11;;;;;;;40.60;23.83;;;11.80;61.80;;;;;;5058195;28;20479;-86
2022/11/29 07:54:40;;;;;;;38.60;21.67;;;11.80;62.40;;;;;;5035758;28;21126;-88
2022/11/29 07:57:08;;;;;;;37.50;20.80;;;11.70;62.20;;;;;;5022499;28;20868;-85
2022/11/29 07:59:35;;;;;;;39.57;22.00;;;11.70;62.20;;;;;;5035773;28;20448;-86
2022/11/29 08:02:02;;;;;;;36.33;22.40;;;11.80;61.90;;;;;;5067295;28;20567;-87
2022/11/29 08:04:29;;;;;;;39.60;20.20;;;11.70;61.30;;;;;;5034827;28;20810;-85
2022/11/29 08:06:58;;;;;;;41.50;20.80;;;11.70;61.90;;;;;;5052547;28;20453;-88
2022/11/29 08:09:25;;;;;;;32.47;20.20;;;11.70;62.30;;;;;;5053219;28;20454;-86
2022/11/29 08:11:52;;;;;;;35.30;18.87;;;11.70;62.80;;;;;;5037289;28;20547;-90
2022/11/29 08:14:21;;;;;;;34.77;20.60;;;11.70;62.70;;;;;;5034597;28;21446;-86
2022/11/29 08:16:48;;;;;;;39.83;20.70;;;11.70;62.40;;;;;;5050607;28;20974;-87
2022/11/29 08:19:15;;;;;;;37.00;19.97;;;11.60;62.90;;;;;;5067859;28;20453;-88
2022/11/29 08:21:45;;;;;;;40.80;18.93;;;11.60;63.20;;;;;;5050043;28;20487;-86
2022/11/29 08:24:12;;;;;;;37.57;22.17;;;11.60;63.40;;;;;;5025655;28;20672;-85
2022/11/29 08:26:39;;;;;;;41.30;20.70;;;11.70;63.10;;;;;;5029945;28;20449;-87
2022/11/29 08:29:07;;;;;;;39.00;20.57;;;11.70;64.20;;;;;;5019300;28;20445;-86
2022/11/29 08:31:35;;;;;;;35.73;20.60;;;11.50;63.80;;;;;;5019057;28;20487;-87
2022/11/29 08:34:05;;;;;;;33.60;18.67;;;11.20;64.10;;;;;;5055142;28;20432;-85
2022/11/29 08:36:32;;;;;;;37.50;20.00;;;11.40;64.00;;;;;;5033728;28;20440;-89
2022/11/29 08:39:01;;;;;;;33.23;20.40;;;11.60;63.40;;;;;;5035540;28;20457;-87
2022/11/29 08:41:29;;;;;;;32.97;20.50;;;11.70;62.80;;;;;;5042050;28;21114;-86
2022/11/29 08:43:56;;;;;;;34.90;20.80;;;11.70;63.00;;;;;;5064407;28;21047;-89
2022/11/29 08:47:34;;;;;;;39.13;22.43;;;11.80;62.80;;;;;;5046928;28;20448;-87
2022/11/29 08:49:11;;;;;;;33.47;19.20;;;11.80;61.90;;;;;;5049165;28;20438;-87
2022/11/29 08:51:38;;;;;;;37.80;21.70;;;11.80;61.60;;;;;;5046298;28;20469;-86
2022/11/29 08:54:04;;;;;;;32.20;20.17;;;11.80;61.90;;;;;;5039110;28;20580;-86
2022/11/29 08:56:32;;;;;;;42.40;25.77;;;11.50;62.70;;;;;;5049858;28;20480;-85
2022/11/29 08:58:59;;;;;;;53.63;30.00;;;11.50;63.70;;;;;;5064435;28;20825;-86
2022/11/29 09:01:27;;;;;;;38.63;21.97;;;11.50;63.80;;;;;;5031860;28;20476;-87
2022/11/29 09:04:02;;;;;;;41.00;21.90;;;11.50;63.70;;;;;;5046920;28;21353;-88
2022/11/29 09:06:32;;;;;;;34.83;20.73;;;11.60;63.90;;;;;;5033788;28;21255;-89
2022/11/29 09:09:00;;;;;;;37.97;17.90;;;11.50;64.00;;;;;;5018223;28;20803;-87
2022/11/29 09:11:29;;;;;;;35.37;20.20;;;11.60;64.00;;;;;;5016718;28;20475;-87
2022/11/29 09:13:58;;;;;;;34.93;18.37;;;11.70;63.60;;;;;;5045283;28;20825;-86
2022/11/29 09:16:27;;;;;;;38.73;19.73;;;11.80;63.70;;;;;;5038835;28;20455;-87
2022/11/29 09:18:54;;;;;;;33.80;19.30;;;11.80;63.20;;;;;;5030609;28;21042;-87
2022/11/29 09:21:23;;;;;;;39.70;19.17;;;11.80;63.30;;;;;;5026769;28;20469;-85
2022/11/29 09:23:57;;;;;;;36.00;19.27;;;11.50;63.90;;;;;;5010931;28;20880;-86
2022/11/29 09:26:26;;;;;;;37.50;20.30;;;11.50;63.50;;;;;;5037091;28;20492;-86
2022/11/29 09:28:53;;;;;;;33.00;18.27;;;11.50;64.00;;;;;;5028695;28;20860;-84
2022/11/29 09:31:20;;;;;;;28.50;17.90;;;11.60;63.90;;;;;;5047446;28;20477;-87
2022/11/29 09:33:48;;;;;;;31.90;19.73;;;11.80;63.40;;;;;;5053083;28;20470;-86
2022/11/29 09:36:15;;;;;;;37.17;19.07;;;11.90;63.10;;;;;;5031461;28;20449;-87
2022/11/29 09:38:42;;;;;;;36.37;20.33;;;12.00;62.70;;;;;;5026700;28;20488;-85
2022/11/29 09:41:27;;;;;;;34.23;19.00;;;12.00;62.50;;;;;;5017236;28;20477;-87
2022/11/29 09:44:04;;;;;;;32.30;17.80;;;12.00;62.10;;;;;;5043532;28;23067;-88
2022/11/29 09:46:42;;;;;;;32.90;18.80;;;12.00;62.10;;;;;;5037758;28;20445;-88
2022/11/29 09:49:36;;;;;;;33.83;19.40;;;12.00;62.10;;;;;;5028301;28;20457;-86
2022/11/29 09:52:09;;;;;;;35.23;18.40;;;11.90;62.40;;;;;;5031048;28;20983;-86
2022/11/29 09:54:48;;;;;;;34.23;18.93;;;12.00;62.30;;;;;;5064253;28;20996;-86
2022/11/29 09:57:18;;;;;;;32.10;18.90;;;12.00;62.30;;;;;;5050893;28;20445;-86
2022/11/29 09:59:49;;;;;;;35.00;19.60;;;12.00;62.40;;;;;;5034296;28;20462;-87
2022/11/29 10:02:20;;;;;;;36.37;20.37;;;12.00;62.20;;;;;;5035564;28;20480;-87
2022/11/29 10:04:52;;;;;;;35.93;18.63;;;12.00;62.50;;;;;;5021044;28;20551;-86
2022/11/29 10:07:23;;;;;;;39.87;20.90;;;12.20;62.40;;;;;;5052896;28;20506;-88
2022/11/29 10:09:54;;;;;;;38.87;19.93;;;12.30;61.80;;;;;;5056132;28;20607;-86
2022/11/29 10:12:34;;;;;;;32.40;19.23;;;12.20;61.80;;;;;;5018976;28;20825;-87
2022/11/29 10:15:08;;;;;;;33.67;18.80;;;12.00;62.70;;;;;;5053391;28;20477;-85
2022/11/29 10:17:38;;;;;;;34.30;18.50;;;11.80;62.90;;;;;;5068406;28;20522;-85
2022/11/29 10:20:12;;;;;;;39.17;18.70;;;11.70;63.30;;;;;;5054682;28;20997;-88
2022/11/29 10:22:48;;;;;;;29.17;16.13;;;11.80;63.20;;;;;;5034002;28;20442;-87
2022/11/29 10:25:24;;;;;;;35.03;17.90;;;11.80;63.30;;;;;;5052113;28;20985;-87
2022/11/29 10:27:53;;;;;;;31.40;19.43;;;11.90;63.40;;;;;;5000798;28;20448;-87
2022/11/29 10:30:21;;;;;;;30.47;17.97;;;11.70;63.40;;;;;;5068669;28;20817;-87
2022/11/29 10:32:55;;;;;;;34.73;17.33;;;11.70;64.00;;;;;;5017759;28;20449;-85
2022/11/29 10:35:23;;;;;;;33.77;17.77;;;11.40;64.30;;;;;;5068616;28;20963;-86
2022/11/29 10:37:54;;;;;;;34.03;18.77;;;11.70;64.20;;;;;;5074293;28;20475;-87
2022/11/29 10:40:30;;;;;;;35.07;18.40;;;11.90;63.10;;;;;;5033408;28;20484;-87
2022/11/29 10:42:59;;;;;;;37.03;19.80;;;11.90;62.80;;;;;;5039802;28;20463;-86
2022/11/29 10:45:30;;;;;;;43.00;18.90;;;11.80;63.20;;;;;;5051865;28;20846;-86
2022/11/29 10:48:03;;;;;;;31.47;17.70;;;11.90;63.20;;;;;;5068946;28;20452;-86
2022/11/29 10:50:34;;;;;;;33.13;18.20;;;11.90;63.00;;;;;;5001128;28;20471;-87
2022/11/29 10:53:05;;;;;;;38.47;18.40;;;11.60;63.00;;;;;;5029458;28;21138;-86
2022/11/29 10:55:38;;;;;;;124.10;48.70;;;11.60;63.50;;;;;;5068183;28;20461;-86
2022/11/29 10:58:19;;;;;;;43.53;24.00;;;11.50;64.40;;;;;;5050562;28;20932;-86
2022/11/29 11:00:55;;;;;;;132.97;51.33;;;11.30;64.30;;;;;;5051724;28;20485;-87
2022/11/29 11:03:33;;;;;;;50.90;21.53;;;11.40;64.10;;;;;;5034493;28;20468;-89
2022/11/29 11:06:04;;;;;;;34.67;18.53;;;11.70;63.10;;;;;;5052498;28;20445;-86
2022/11/29 11:08:32;;;;;;;37.70;19.00;;;11.90;62.30;;;;;;5025505;28;20448;-85
2022/11/29 11:11:00;;;;;;;32.30;18.27;;;12.00;62.10;;;;;;5050446;28;20485;-87
2022/11/29 11:13:31;;;;;;;35.43;19.07;;;12.20;61.60;;;;;;5019180;28;20530;-87
2022/11/29 11:16:08;;;;;;;33.70;18.33;;;12.20;61.00;;;;;;5033223;28;20440;-86
2022/11/29 11:18:36;;;;;;;29.97;17.30;;;12.10;61.70;;;;;;5047807;28;20449;-87
2022/11/29 11:21:04;;;;;;;34.03;18.30;;;12.10;61.40;;;;;;5040292;28;20903;-88
2022/11/29 11:23:33;;;;;;;37.53;21.83;;;12.30;61.50;;;;;;5017939;28;20442;-87
2022/11/29 11:26:03;;;;;;;35.13;19.20;;;12.40;61.30;;;;;;5067612;28;20449;-86
2022/11/29 11:28:38;;;;;;;33.67;18.37;;;12.40;61.40;;;;;;5037034;28;20468;-87
2022/11/29 11:31:07;;;;;;;40.43;18.40;;;12.30;61.50;;;;;;5034818;28;20472;-89
2022/11/29 11:33:36;;;;;;;37.77;18.83;;;12.40;61.00;;;;;;5051956;28;20983;-87
2022/11/29 11:36:11;;;;;;;38.13;18.53;;;12.60;60.70;;;;;;5026631;28;20544;-86
2022/11/29 11:38:40;;;;;;;42.57;18.40;;;12.60;60.30;;;;;;5002670;28;20513;-86
2022/11/29 11:41:18;;;;;;;37.33;18.67;;;12.20;60.90;;;;;;5004631;28;20464;-87
2022/11/29 11:43:53;;;;;;;31.33;17.37;;;12.00;61.90;;;;;;5025758;28;20464;-88
2022/11/29 11:46:20;;;;;;;36.37;17.97;;;12.20;61.70;;;;;;5052721;28;20464;-88
2022/11/29 11:48:48;;;;;;;35.90;20.00;;;12.30;60.90;;;;;;5018232;28;20449;-87
2022/11/29 11:51:25;;;;;;;40.30;20.47;;;12.30;60.90;;;;;;5030013;28;20535;-86
2022/11/29 11:53:55;;;;;;;39.00;18.67;;;12.10;61.50;;;;;;5050111;28;20432;-87
2022/11/29 11:56:26;;;;;;;37.57;19.30;;;12.20;61.80;;;;;;5051260;28;20442;-86
2022/11/29 11:58:57;;;;;;;33.80;19.07;;;12.30;61.60;;;;;;5051154;28;20433;-85
2022/11/29 12:01:29;;;;;;;38.57;20.27;;;12.50;61.10;;;;;;5032407;28;20907;-85
2022/11/29 12:04:02;;;;;;;38.20;19.10;;;12.40;61.60;;;;;;5050044;28;20574;-85
2022/11/29 12:06:38;;;;;;;35.47;17.83;;;12.30;61.50;;;;;;5052881;28;20549;-86
2022/11/29 12:09:12;;;;;;;42.13;20.20;;;12.30;61.40;;;;;;5034937;28;20444;-85
2022/11/29 12:11:44;;;;;;;41.73;19.83;;;12.20;61.30;;;;;;5036303;28;20526;-88
2022/11/29 12:14:21;;;;;;;36.40;19.03;;;12.30;61.50;;;;;;5035446;28;20635;-86
2022/11/29 12:16:53;;;;;;;36.17;19.93;;;12.30;60.90;;;;;;5052358;28;20448;-86
2022/11/29 12:19:23;;;;;;;36.13;19.30;;;12.20;61.70;;;;;;5052148;28;20580;-84
2022/11/29 12:21:56;;;;;;;38.47;18.40;;;12.30;61.60;;;;;;5048491;28;20544;-86
2022/11/29 12:24:27;;;;;;;35.60;19.53;;;12.40;61.50;;;;;;5067810;28;20469;-87
2022/11/29 12:26:59;;;;;;;37.20;20.60;;;12.60;61.20;;;;;;5034527;28;20448;-85
2022/11/29 12:29:31;;;;;;;39.13;19.60;;;12.70;60.90;;;;;;5041745;28;20441;-84
2022/11/29 12:32:14;;;;;;;39.47;19.57;;;12.30;60.70;;;;;;5033149;28;20599;-86
2022/11/29 12:34:57;;;;;;;46.73;24.50;;;12.30;60.90;;;;;;5051151;28;20456;-86
2022/11/29 12:37:32;;;;;;;47.33;23.90;;;12.30;61.20;;;;;;5043626;28;20447;-86
2022/11/29 12:40:06;;;;;;;47.50;23.33;;;12.40;62.90;;;;;;5070338;28;20472;-87
2022/11/29 12:42:47;;;;;;;45.17;22.97;;;12.40;67.50;;;;;;5018474;28;20453;-86
2022/11/29 12:45:37;;;;;;;38.00;20.60;;;12.50;65.80;;;;;;5030063;28;20871;-86
2022/11/29 12:48:13;;;;;;;45.20;22.60;;;12.70;62.90;;;;;;5049058;28;20688;-86
2022/11/29 12:50:51;;;;;;;50.97;28.73;;;12.80;61.80;;;;;;5038029;28;20473;-86
2022/11/29 12:53:30;;;;;;;46.77;24.80;;;12.80;61.40;;;;;;5047997;28;21063;-87
2022/11/29 12:56:07;;;;;;;46.93;23.70;;;12.90;60.90;;;;;;5033898;28;20472;-87
2022/11/29 12:58:46;;;;;;;49.53;23.80;;;12.90;60.10;;;;;;5033125;28;20449;-86
2022/11/29 13:01:25;;;;;;;47.30;23.17;;;12.70;59.70;;;;;;5054480;28;20472;-89
2022/11/29 13:03:58;;;;;;;40.43;20.20;;;12.60;61.00;;;;;;5044532;28;20784;-89
2022/11/29 13:06:34;;;;;;;41.87;22.73;;;12.60;61.10;;;;;;5018934;28;20459;-87
2022/11/29 13:09:38;;;;;;;38.60;20.40;;;12.70;61.30;;;;;;5047378;28;20460;-89
2022/11/29 13:12:09;;;;;;;39.63;19.77;;;12.70;61.20;;;;;;5049312;28;20460;-86